Time;durP1;ratioP1;P1;durP2;ratioP2;P2;SDS_P1;SDS_P2;PMS_P1;PMS_P2;Temp;Humidity;BMP_temperature;BMP_pressure;BME280_temperature;BME280_humidity;BME280_pressure;Samples;Min_cycle;Max_cycle;Signal;HPM_P1;HPM_P2
2020/11/28 00:00:45;;;;;;;25;12.35;;;;;;;0.43;70.25;95421.59;;;;
2020/11/28 00:01:46;;;;;;;26.25;11.85;;;;;;;0.33;71.31152;95410.74;;;;
2020/11/28 00:02:46;;;;;;;26.25;11.85;;;;;;;0.33;71.31152;95410.74;;;;
2020/11/28 00:03:47;;;;;;;26.25;11.85;;;;;;;0.33;71.31152;95410.74;;;;
2020/11/28 00:04:47;;;;;;;26.25;11.85;;;;;;;0.33;71.31152;95410.74;;;;
2020/11/28 00:05:48;;;;;;;26.25;11.85;;;;;;;0.33;71.31152;95410.74;;;;
2020/11/28 00:06:49;;;;;;;26.25;11.85;;;;;;;0.33;71.31152;95410.74;;;;
2020/11/28 00:07:49;;;;;;;26.25;11.85;;;;;;;0.33;71.31152;95410.74;;;;
2020/11/28 00:08:50;;;;;;;26.25;11.85;;;;;;;0.33;71.31152;95410.74;;;;
2020/11/28 00:09:50;;;;;;;26.25;11.85;;;;;;;0.33;71.31152;95410.74;;;;
2020/11/28 00:10:51;;;;;;;26.25;11.85;;;;;;;0.33;71.31152;95410.74;;;;
2020/11/28 00:11:51;;;;;;;26.25;11.85;;;;;;;0.33;71.31152;95410.74;;;;
2020/11/28 00:12:52;;;;;;;19.3;11.45;;;;;;;0.24;70.98242;95413.99;;;;
2020/11/28 00:13:52;;;;;;;19.3;11.45;;;;;;;0.24;70.98242;95413.99;;;;
2020/11/28 00:14:53;;;;;;;19.3;11.45;;;;;;;0.24;70.98242;95413.99;;;;
2020/11/28 00:15:53;;;;;;;19.3;11.45;;;;;;;0.24;70.98242;95413.99;;;;
2020/11/28 00:16:53;;;;;;;19.3;11.45;;;;;;;0.24;70.98242;95413.99;;;;
2020/11/28 00:17:54;;;;;;;19.3;11.45;;;;;;;0.24;70.98242;95413.99;;;;
2020/11/28 00:18:54;;;;;;;19.3;11.45;;;;;;;0.24;70.98242;95413.99;;;;
2020/11/28 00:19:55;;;;;;;19.3;11.45;;;;;;;0.24;70.98242;95413.99;;;;
2020/11/28 00:20:55;;;;;;;19.3;11.45;;;;;;;0.24;70.98242;95413.99;;;;
2020/11/28 00:21:56;;;;;;;19.3;11.45;;;;;;;0.24;70.98242;95413.99;;;;
2020/11/28 00:22:56;;;;;;;23.75;12.3;;;;;;;0.23;71.00293;95411.86;;;;
2020/11/28 00:23:57;;;;;;;23.75;12.3;;;;;;;0.23;71.00293;95411.86;;;;
2020/11/28 00:24:57;;;;;;;23.75;12.3;;;;;;;0.23;71.00293;95411.86;;;;
2020/11/28 00:25:58;;;;;;;23.75;12.3;;;;;;;0.23;71.00293;95411.86;;;;
2020/11/28 00:26:58;;;;;;;23.75;12.3;;;;;;;0.23;71.00293;95411.86;;;;
2020/11/28 00:27:59;;;;;;;23.75;12.3;;;;;;;0.23;71.00293;95411.86;;;;
2020/11/28 00:28:59;;;;;;;23.75;12.3;;;;;;;0.23;71.00293;95411.86;;;;
2020/11/28 00:30:00;;;;;;;23.75;12.3;;;;;;;0.23;71.00293;95411.86;;;;
2020/11/28 00:31:00;;;;;;;23.75;12.3;;;;;;;0.23;71.00293;95411.86;;;;
2020/11/28 00:32:03;;;;;;;23.75;12.3;;;;;;;0.23;71.00293;95411.86;;;;
2020/11/28 00:33:04;;;;;;;23.75;12.3;;;;;;;0.23;71.00293;95411.86;;;;
2020/11/28 00:34:04;;;;;;;22.55;12.75;;;;;;;0.14;70.82031;95391.22;;;;
2020/11/28 00:35:05;;;;;;;22.55;12.75;;;;;;;0.14;70.82031;95391.22;;;;
2020/11/28 00:36:06;;;;;;;22.55;12.75;;;;;;;0.14;70.82031;95391.22;;;;
2020/11/28 00:37:07;;;;;;;22.55;12.75;;;;;;;0.14;70.82031;95391.22;;;;
2020/11/28 00:38:07;;;;;;;22.55;12.75;;;;;;;0.14;70.82031;95391.22;;;;
2020/11/28 00:39:08;;;;;;;22.55;12.75;;;;;;;0.14;70.82031;95391.22;;;;
2020/11/28 00:40:08;;;;;;;22.55;12.75;;;;;;;0.14;70.82031;95391.22;;;;
2020/11/28 00:41:09;;;;;;;22.55;12.75;;;;;;;0.14;70.82031;95391.22;;;;
2020/11/28 00:42:09;;;;;;;22.55;12.75;;;;;;;0.14;70.82031;95391.22;;;;
2020/11/28 00:43:10;;;;;;;22.55;12.75;;;;;;;0.14;70.82031;95391.22;;;;
2020/11/28 00:44:10;;;;;;;22.55;12.75;;;;;;;0.14;70.82031;95391.22;;;;
2020/11/28 00:45:11;;;;;;;22.95;12.25;;;;;;;0.21;71.1123;95398;;;;
2020/11/28 00:46:11;;;;;;;22.95;12.25;;;;;;;0.21;71.1123;95398;;;;
2020/11/28 00:47:16;;;;;;;22.95;12.25;;;;;;;0.21;71.1123;95398;;;;
2020/11/28 00:48:17;;;;;;;22.95;12.25;;;;;;;0.21;71.1123;95398;;;;
2020/11/28 00:49:17;;;;;;;22.95;12.25;;;;;;;0.21;71.1123;95398;;;;
2020/11/28 00:50:17;;;;;;;22.95;12.25;;;;;;;0.21;71.1123;95398;;;;
2020/11/28 00:51:18;;;;;;;22.95;12.25;;;;;;;0.21;71.1123;95398;;;;
2020/11/28 00:52:18;;;;;;;22.95;12.25;;;;;;;0.21;71.1123;95398;;;;
2020/11/28 00:53:19;;;;;;;22.95;12.25;;;;;;;0.21;71.1123;95398;;;;
2020/11/28 00:54:20;;;;;;;22.95;12.25;;;;;;;0.21;71.1123;95398;;;;
2020/11/28 00:55:20;;;;;;;22;11.7;;;;;;;0.19;71.53906;95400.83;;;;
2020/11/28 00:56:21;;;;;;;22;11.7;;;;;;;0.19;71.53906;95400.83;;;;
2020/11/28 00:57:21;;;;;;;22;11.7;;;;;;;0.19;71.53906;95400.83;;;;
2020/11/28 00:58:22;;;;;;;22;11.7;;;;;;;0.19;71.53906;95400.83;;;;
2020/11/28 00:59:22;;;;;;;22;11.7;;;;;;;0.19;71.53906;95400.83;;;;
2020/11/28 01:00:23;;;;;;;22;11.7;;;;;;;0.19;71.53906;95400.83;;;;
2020/11/28 01:01:23;;;;;;;22;11.7;;;;;;;0.19;71.53906;95400.83;;;;
2020/11/28 01:02:24;;;;;;;22;11.7;;;;;;;0.19;71.53906;95400.83;;;;
2020/11/28 01:03:24;;;;;;;22;11.7;;;;;;;0.19;71.53906;95400.83;;;;
2020/11/28 01:04:25;;;;;;;22;11.7;;;;;;;0.19;71.53906;95400.83;;;;
2020/11/28 01:05:25;;;;;;;22;11.7;;;;;;;0.19;71.53906;95400.83;;;;
2020/11/28 01:06:26;;;;;;;24.35;11.65;;;;;;;0.17;71.70313;95401.48;;;;
2020/11/28 01:07:26;;;;;;;24.35;11.65;;;;;;;0.17;71.70313;95401.48;;;;
2020/11/28 01:08:27;;;;;;;24.35;11.65;;;;;;;0.17;71.70313;95401.48;;;;
2020/11/28 01:09:27;;;;;;;24.35;11.65;;;;;;;0.17;71.70313;95401.48;;;;
2020/11/28 01:10:28;;;;;;;24.35;11.65;;;;;;;0.17;71.70313;95401.48;;;;
2020/11/28 01:11:28;;;;;;;24.35;11.65;;;;;;;0.17;71.70313;95401.48;;;;
2020/11/28 01:12:31;;;;;;;24.35;11.65;;;;;;;0.17;71.70313;95401.48;;;;
2020/11/28 01:13:31;;;;;;;24.35;11.65;;;;;;;0.17;71.70313;95401.48;;;;
2020/11/28 01:14:32;;;;;;;24.35;11.65;;;;;;;0.17;71.70313;95401.48;;;;
2020/11/28 01:15:33;;;;;;;24.35;11.65;;;;;;;0.17;71.70313;95401.48;;;;
2020/11/28 01:16:33;;;;;;;23.65;12.35;;;;;;;0.22;71.62695;95403.62;;;;
2020/11/28 01:17:34;;;;;;;23.65;12.35;;;;;;;0.22;71.62695;95403.62;;;;
2020/11/28 01:18:34;;;;;;;23.65;12.35;;;;;;;0.22;71.62695;95403.62;;;;
2020/11/28 01:19:34;;;;;;;23.65;12.35;;;;;;;0.22;71.62695;95403.62;;;;
2020/11/28 01:20:35;;;;;;;23.65;12.35;;;;;;;0.22;71.62695;95403.62;;;;
2020/11/28 01:21:36;;;;;;;23.65;12.35;;;;;;;0.22;71.62695;95403.62;;;;
2020/11/28 01:22:36;;;;;;;23.65;12.35;;;;;;;0.22;71.62695;95403.62;;;;
2020/11/28 01:23:37;;;;;;;23.65;12.35;;;;;;;0.22;71.62695;95403.62;;;;
2020/11/28 01:24:37;;;;;;;23.65;12.35;;;;;;;0.22;71.62695;95403.62;;;;
2020/11/28 01:25:38;;;;;;;23.65;12.35;;;;;;;0.22;71.62695;95403.62;;;;
2020/11/28 01:26:38;;;;;;;23.65;12.35;;;;;;;0.22;71.62695;95403.62;;;;
2020/11/28 01:27:39;;;;;;;18.45;11.2;;;;;;;0.18;71.4541;95399.57;;;;
2020/11/28 01:28:40;;;;;;;18.45;11.2;;;;;;;0.18;71.4541;95399.57;;;;
2020/11/28 01:29:40;;;;;;;18.45;11.2;;;;;;;0.18;71.4541;95399.57;;;;
2020/11/28 01:30:40;;;;;;;18.45;11.2;;;;;;;0.18;71.4541;95399.57;;;;
2020/11/28 01:31:41;;;;;;;18.45;11.2;;;;;;;0.18;71.4541;95399.57;;;;
2020/11/28 01:32:41;;;;;;;18.45;11.2;;;;;;;0.18;71.4541;95399.57;;;;
2020/11/28 01:33:42;;;;;;;18.45;11.2;;;;;;;0.18;71.4541;95399.57;;;;
2020/11/28 01:34:42;;;;;;;18.45;11.2;;;;;;;0.18;71.4541;95399.57;;;;
2020/11/28 01:35:43;;;;;;;18.45;11.2;;;;;;;0.18;71.4541;95399.57;;;;
2020/11/28 01:36:43;;;;;;;18.45;11.2;;;;;;;0.18;71.4541;95399.57;;;;
2020/11/28 01:37:44;;;;;;;24.8;11.3;;;;;;;0.23;71.50391;95401.73;;;;
2020/11/28 01:38:44;;;;;;;24.8;11.3;;;;;;;0.23;71.50391;95401.73;;;;
2020/11/28 01:39:45;;;;;;;24.8;11.3;;;;;;;0.23;71.50391;95401.73;;;;
2020/11/28 01:40:45;;;;;;;24.8;11.3;;;;;;;0.23;71.50391;95401.73;;;;
2020/11/28 01:41:46;;;;;;;24.8;11.3;;;;;;;0.23;71.50391;95401.73;;;;
2020/11/28 01:42:47;;;;;;;24.8;11.3;;;;;;;0.23;71.50391;95401.73;;;;
2020/11/28 01:43:47;;;;;;;24.8;11.3;;;;;;;0.23;71.50391;95401.73;;;;
2020/11/28 01:44:48;;;;;;;24.8;11.3;;;;;;;0.23;71.50391;95401.73;;;;
2020/11/28 01:45:57;;;;;;;24.8;11.3;;;;;;;0.23;71.50391;95401.73;;;;
2020/11/28 01:46:58;;;;;;;24.8;11.3;;;;;;;0.23;71.50391;95401.73;;;;
2020/11/28 01:47:58;;;;;;;24.8;11.3;;;;;;;0.23;71.50391;95401.73;;;;
2020/11/28 01:48:59;;;;;;;30.25;11.2;;;;;;;0.19;71.39453;95410.53;;;;
2020/11/28 01:50:00;;;;;;;30.25;11.2;;;;;;;0.19;71.39453;95410.53;;;;
2020/11/28 01:51:03;;;;;;;30.25;11.2;;;;;;;0.19;71.39453;95410.53;;;;
2020/11/28 01:52:04;;;;;;;30.25;11.2;;;;;;;0.19;71.39453;95410.53;;;;
2020/11/28 01:53:04;;;;;;;30.25;11.2;;;;;;;0.19;71.39453;95410.53;;;;
2020/11/28 01:54:05;;;;;;;30.25;11.2;;;;;;;0.19;71.39453;95410.53;;;;
2020/11/28 01:55:05;;;;;;;30.25;11.2;;;;;;;0.19;71.39453;95410.53;;;;
2020/11/28 01:56:06;;;;;;;30.25;11.2;;;;;;;0.19;71.39453;95410.53;;;;
2020/11/28 01:57:07;;;;;;;30.25;11.2;;;;;;;0.19;71.39453;95410.53;;;;
2020/11/28 01:58:07;;;;;;;30.25;11.2;;;;;;;0.19;71.39453;95410.53;;;;
2020/11/28 01:59:08;;;;;;;27.5;11.65;;;;;;;0.21;71.51074;95400.16;;;;
2020/11/28 02:00:11;;;;;;;27.5;11.65;;;;;;;0.21;71.51074;95400.16;;;;
2020/11/28 02:01:12;;;;;;;27.5;11.65;;;;;;;0.21;71.51074;95400.16;;;;
2020/11/28 02:02:13;;;;;;;27.5;11.65;;;;;;;0.21;71.51074;95400.16;;;;
2020/11/28 02:03:13;;;;;;;27.5;11.65;;;;;;;0.21;71.51074;95400.16;;;;
2020/11/28 02:04:15;;;;;;;27.5;11.65;;;;;;;0.21;71.51074;95400.16;;;;
2020/11/28 02:05:15;;;;;;;27.5;11.65;;;;;;;0.21;71.51074;95400.16;;;;
2020/11/28 02:06:16;;;;;;;27.5;11.65;;;;;;;0.21;71.51074;95400.16;;;;
2020/11/28 02:07:16;;;;;;;27.5;11.65;;;;;;;0.21;71.51074;95400.16;;;;
2020/11/28 02:08:17;;;;;;;27.5;11.65;;;;;;;0.21;71.51074;95400.16;;;;
2020/11/28 02:09:17;;;;;;;27.5;11.65;;;;;;;0.21;71.51074;95400.16;;;;
2020/11/28 02:10:18;;;;;;;19;10.45;;;;;;;0.18;71.55859;95392.52;;;;
2020/11/28 02:11:19;;;;;;;19;10.45;;;;;;;0.18;71.55859;95392.52;;;;
2020/11/28 02:12:19;;;;;;;19;10.45;;;;;;;0.18;71.55859;95392.52;;;;
2020/11/28 02:13:20;;;;;;;19;10.45;;;;;;;0.18;71.55859;95392.52;;;;
2020/11/28 02:14:20;;;;;;;19;10.45;;;;;;;0.18;71.55859;95392.52;;;;
2020/11/28 02:15:21;;;;;;;19;10.45;;;;;;;0.18;71.55859;95392.52;;;;
2020/11/28 02:16:22;;;;;;;19;10.45;;;;;;;0.18;71.55859;95392.52;;;;
2020/11/28 02:17:22;;;;;;;19;10.45;;;;;;;0.18;71.55859;95392.52;;;;
2020/11/28 02:18:22;;;;;;;19;10.45;;;;;;;0.18;71.55859;95392.52;;;;
2020/11/28 02:19:23;;;;;;;19;10.45;;;;;;;0.18;71.55859;95392.52;;;;
2020/11/28 02:20:24;;;;;;;29.7;9.6;;;;;;;0.07;72.03027;95374.7;;;;
2020/11/28 02:21:24;;;;;;;29.7;9.6;;;;;;;0.07;72.03027;95374.7;;;;
2020/11/28 02:22:25;;;;;;;29.7;9.6;;;;;;;0.07;72.03027;95374.7;;;;
2020/11/28 02:23:25;;;;;;;29.7;9.6;;;;;;;0.07;72.03027;95374.7;;;;
2020/11/28 02:24:26;;;;;;;29.7;9.6;;;;;;;0.07;72.03027;95374.7;;;;
2020/11/28 02:25:26;;;;;;;29.7;9.6;;;;;;;0.07;72.03027;95374.7;;;;
2020/11/28 02:26:27;;;;;;;29.7;9.6;;;;;;;0.07;72.03027;95374.7;;;;
2020/11/28 02:27:28;;;;;;;29.7;9.6;;;;;;;0.07;72.03027;95374.7;;;;
2020/11/28 02:28:28;;;;;;;29.7;9.6;;;;;;;0.07;72.03027;95374.7;;;;
2020/11/28 02:29:28;;;;;;;29.7;9.6;;;;;;;0.07;72.03027;95374.7;;;;
2020/11/28 02:30:29;;;;;;;29.7;9.6;;;;;;;0.07;72.03027;95374.7;;;;
2020/11/28 02:31:30;;;;;;;22;9.900001;;;;;;;-0.01;72.07031;95376.49;;;;
2020/11/28 02:32:31;;;;;;;22;9.900001;;;;;;;-0.01;72.07031;95376.49;;;;
2020/11/28 02:33:31;;;;;;;22;9.900001;;;;;;;-0.01;72.07031;95376.49;;;;
2020/11/28 02:34:32;;;;;;;22;9.900001;;;;;;;-0.01;72.07031;95376.49;;;;
2020/11/28 02:35:32;;;;;;;22;9.900001;;;;;;;-0.01;72.07031;95376.49;;;;
2020/11/28 02:36:33;;;;;;;22;9.900001;;;;;;;-0.01;72.07031;95376.49;;;;
2020/11/28 02:37:34;;;;;;;22;9.900001;;;;;;;-0.01;72.07031;95376.49;;;;
2020/11/28 02:38:34;;;;;;;22;9.900001;;;;;;;-0.01;72.07031;95376.49;;;;
2020/11/28 02:39:34;;;;;;;22;9.900001;;;;;;;-0.01;72.07031;95376.49;;;;
2020/11/28 02:40:35;;;;;;;22;9.900001;;;;;;;-0.01;72.07031;95376.49;;;;
2020/11/28 02:41:35;;;;;;;22;9.900001;;;;;;;-0.01;72.07031;95376.49;;;;
2020/11/28 02:42:36;;;;;;;15.2;9.300001;;;;;;;-0.1;72.18945;95377.58;;;;
2020/11/28 02:43:36;;;;;;;15.2;9.300001;;;;;;;-0.1;72.18945;95377.58;;;;
2020/11/28 02:44:37;;;;;;;15.2;9.300001;;;;;;;-0.1;72.18945;95377.58;;;;
2020/11/28 02:45:37;;;;;;;15.2;9.300001;;;;;;;-0.1;72.18945;95377.58;;;;
2020/11/28 02:46:38;;;;;;;15.2;9.300001;;;;;;;-0.1;72.18945;95377.58;;;;
2020/11/28 02:47:38;;;;;;;15.2;9.300001;;;;;;;-0.1;72.18945;95377.58;;;;
2020/11/28 02:48:39;;;;;;;15.2;9.300001;;;;;;;-0.1;72.18945;95377.58;;;;
2020/11/28 02:49:40;;;;;;;15.2;9.300001;;;;;;;-0.1;72.18945;95377.58;;;;
2020/11/28 02:50:40;;;;;;;15.2;9.300001;;;;;;;-0.1;72.18945;95377.58;;;;
2020/11/28 02:51:41;;;;;;;15.2;9.300001;;;;;;;-0.1;72.18945;95377.58;;;;
2020/11/28 02:52:41;;;;;;;19.65;9.75;;;;;;;-0.17;72.76465;95379.18;;;;
2020/11/28 02:53:42;;;;;;;19.65;9.75;;;;;;;-0.17;72.76465;95379.18;;;;
2020/11/28 02:54:42;;;;;;;19.65;9.75;;;;;;;-0.17;72.76465;95379.18;;;;
2020/11/28 02:55:42;;;;;;;19.65;9.75;;;;;;;-0.17;72.76465;95379.18;;;;
2020/11/28 02:56:43;;;;;;;19.65;9.75;;;;;;;-0.17;72.76465;95379.18;;;;
2020/11/28 02:57:43;;;;;;;19.65;9.75;;;;;;;-0.17;72.76465;95379.18;;;;
2020/11/28 02:58:44;;;;;;;19.65;9.75;;;;;;;-0.17;72.76465;95379.18;;;;
2020/11/28 02:59:44;;;;;;;19.65;9.75;;;;;;;-0.17;72.76465;95379.18;;;;
2020/11/28 03:00:45;;;;;;;19.65;9.75;;;;;;;-0.17;72.76465;95379.18;;;;
2020/11/28 03:01:45;;;;;;;19.65;9.75;;;;;;;-0.17;72.76465;95379.18;;;;
2020/11/28 03:02:46;;;;;;;19.65;9.75;;;;;;;-0.17;72.76465;95379.18;;;;
2020/11/28 03:03:46;;;;;;;15.45;9.049999;;;;;;;-0.2;72.74805;95366.23;;;;
2020/11/28 03:04:47;;;;;;;15.45;9.049999;;;;;;;-0.2;72.74805;95366.23;;;;
2020/11/28 03:05:47;;;;;;;15.45;9.049999;;;;;;;-0.2;72.74805;95366.23;;;;
2020/11/28 03:06:48;;;;;;;15.45;9.049999;;;;;;;-0.2;72.74805;95366.23;;;;
2020/11/28 03:07:48;;;;;;;15.45;9.049999;;;;;;;-0.2;72.74805;95366.23;;;;
2020/11/28 03:08:49;;;;;;;15.45;9.049999;;;;;;;-0.2;72.74805;95366.23;;;;
2020/11/28 03:09:49;;;;;;;15.45;9.049999;;;;;;;-0.2;72.74805;95366.23;;;;
2020/11/28 03:10:49;;;;;;;15.45;9.049999;;;;;;;-0.2;72.74805;95366.23;;;;
2020/11/28 03:11:50;;;;;;;15.45;9.049999;;;;;;;-0.2;72.74805;95366.23;;;;
2020/11/28 03:12:51;;;;;;;15.45;9.049999;;;;;;;-0.2;72.74805;95366.23;;;;
2020/11/28 03:13:51;;;;;;;19.6;9.150001;;;;;;;-0.21;73.12207;95372.13;;;;
2020/11/28 03:14:52;;;;;;;19.6;9.150001;;;;;;;-0.21;73.12207;95372.13;;;;
2020/11/28 03:15:52;;;;;;;19.6;9.150001;;;;;;;-0.21;73.12207;95372.13;;;;
2020/11/28 03:16:53;;;;;;;19.6;9.150001;;;;;;;-0.21;73.12207;95372.13;;;;
2020/11/28 03:17:53;;;;;;;19.6;9.150001;;;;;;;-0.21;73.12207;95372.13;;;;
2020/11/28 03:18:54;;;;;;;19.6;9.150001;;;;;;;-0.21;73.12207;95372.13;;;;
2020/11/28 03:19:54;;;;;;;19.6;9.150001;;;;;;;-0.21;73.12207;95372.13;;;;
2020/11/28 03:20:56;;;;;;;19.6;9.150001;;;;;;;-0.21;73.12207;95372.13;;;;
2020/11/28 03:21:56;;;;;;;19.6;9.150001;;;;;;;-0.21;73.12207;95372.13;;;;
2020/11/28 03:22:57;;;;;;;19.6;9.150001;;;;;;;-0.21;73.12207;95372.13;;;;
2020/11/28 03:23:57;;;;;;;19.6;9.150001;;;;;;;-0.21;73.12207;95372.13;;;;
2020/11/28 03:24:58;;;;;;;19.9;9.599999;;;;;;;-0.25;73.11426;95373.46;;;;
2020/11/28 03:25:58;;;;;;;19.9;9.599999;;;;;;;-0.25;73.11426;95373.46;;;;
2020/11/28 03:26:59;;;;;;;19.9;9.599999;;;;;;;-0.25;73.11426;95373.46;;;;
2020/11/28 03:27:59;;;;;;;19.9;9.599999;;;;;;;-0.25;73.11426;95373.46;;;;
2020/11/28 03:29:00;;;;;;;19.9;9.599999;;;;;;;-0.25;73.11426;95373.46;;;;
2020/11/28 03:30:00;;;;;;;19.9;9.599999;;;;;;;-0.25;73.11426;95373.46;;;;
2020/11/28 03:31:01;;;;;;;19.9;9.599999;;;;;;;-0.25;73.11426;95373.46;;;;
2020/11/28 03:32:02;;;;;;;19.9;9.599999;;;;;;;-0.25;73.11426;95373.46;;;;
2020/11/28 03:33:03;;;;;;;19.9;9.599999;;;;;;;-0.25;73.11426;95373.46;;;;
2020/11/28 03:34:04;;;;;;;19.9;9.599999;;;;;;;-0.25;73.11426;95373.46;;;;
2020/11/28 03:35:04;;;;;;;18.2;11.85;;;;;;;-0.3;73.2207;95374.04;;;;
2020/11/28 03:36:05;;;;;;;18.2;11.85;;;;;;;-0.3;73.2207;95374.04;;;;
2020/11/28 03:37:05;;;;;;;18.2;11.85;;;;;;;-0.3;73.2207;95374.04;;;;
2020/11/28 03:38:06;;;;;;;18.2;11.85;;;;;;;-0.3;73.2207;95374.04;;;;
2020/11/28 03:39:06;;;;;;;18.2;11.85;;;;;;;-0.3;73.2207;95374.04;;;;
2020/11/28 03:40:07;;;;;;;18.2;11.85;;;;;;;-0.3;73.2207;95374.04;;;;
2020/11/28 03:41:07;;;;;;;18.2;11.85;;;;;;;-0.3;73.2207;95374.04;;;;
2020/11/28 03:42:08;;;;;;;18.2;11.85;;;;;;;-0.3;73.2207;95374.04;;;;
2020/11/28 03:43:08;;;;;;;18.2;11.85;;;;;;;-0.3;73.2207;95374.04;;;;
2020/11/28 03:44:09;;;;;;;18.2;11.85;;;;;;;-0.3;73.2207;95374.04;;;;
2020/11/28 03:45:09;;;;;;;18.2;11.85;;;;;;;-0.3;73.2207;95374.04;;;;
2020/11/28 03:46:10;;;;;;;13.45;8.450001;;;;;;;-0.34;73.66309;95368.25;;;;
2020/11/28 03:47:13;;;;;;;13.45;8.450001;;;;;;;-0.34;73.66309;95368.25;;;;
2020/11/28 03:48:14;;;;;;;13.45;8.450001;;;;;;;-0.34;73.66309;95368.25;;;;
2020/11/28 03:49:15;;;;;;;13.45;8.450001;;;;;;;-0.34;73.66309;95368.25;;;;
2020/11/28 03:50:17;;;;;;;13.45;8.450001;;;;;;;-0.34;73.66309;95368.25;;;;
2020/11/28 03:51:18;;;;;;;13.45;8.450001;;;;;;;-0.34;73.66309;95368.25;;;;
2020/11/28 03:52:18;;;;;;;13.45;8.450001;;;;;;;-0.34;73.66309;95368.25;;;;
2020/11/28 03:53:19;;;;;;;13.45;8.450001;;;;;;;-0.34;73.66309;95368.25;;;;
2020/11/28 03:54:19;;;;;;;13.45;8.450001;;;;;;;-0.34;73.66309;95368.25;;;;
2020/11/28 03:55:20;;;;;;;13.45;8.450001;;;;;;;-0.34;73.66309;95368.25;;;;
2020/11/28 03:56:20;;;;;;;13.45;8.450001;;;;;;;-0.34;73.66309;95368.25;;;;
2020/11/28 03:57:21;;;;;;;17.95;10;;;;;;;-0.33;73.6748;95370.4;;;;
2020/11/28 03:58:21;;;;;;;17.95;10;;;;;;;-0.33;73.6748;95370.4;;;;
2020/11/28 03:59:22;;;;;;;17.95;10;;;;;;;-0.33;73.6748;95370.4;;;;
2020/11/28 04:00:22;;;;;;;17.95;10;;;;;;;-0.33;73.6748;95370.4;;;;
2020/11/28 04:01:23;;;;;;;17.95;10;;;;;;;-0.33;73.6748;95370.4;;;;
2020/11/28 04:02:23;;;;;;;17.95;10;;;;;;;-0.33;73.6748;95370.4;;;;
2020/11/28 04:03:25;;;;;;;17.95;10;;;;;;;-0.33;73.6748;95370.4;;;;
2020/11/28 04:04:25;;;;;;;17.95;10;;;;;;;-0.33;73.6748;95370.4;;;;
2020/11/28 04:05:26;;;;;;;17.95;10;;;;;;;-0.33;73.6748;95370.4;;;;
2020/11/28 04:06:26;;;;;;;17.95;10;;;;;;;-0.33;73.6748;95370.4;;;;
2020/11/28 04:07:27;;;;;;;17.75;9.2;;;;;;;-0.27;73.97656;95367.1;;;;
2020/11/28 04:08:27;;;;;;;17.75;9.2;;;;;;;-0.27;73.97656;95367.1;;;;
2020/11/28 04:09:28;;;;;;;17.75;9.2;;;;;;;-0.27;73.97656;95367.1;;;;
2020/11/28 04:10:28;;;;;;;17.75;9.2;;;;;;;-0.27;73.97656;95367.1;;;;
2020/11/28 04:11:29;;;;;;;17.75;9.2;;;;;;;-0.27;73.97656;95367.1;;;;
2020/11/28 04:12:30;;;;;;;17.75;9.2;;;;;;;-0.27;73.97656;95367.1;;;;
2020/11/28 04:13:32;;;;;;;17.75;9.2;;;;;;;-0.27;73.97656;95367.1;;;;
2020/11/28 04:14:32;;;;;;;17.75;9.2;;;;;;;-0.27;73.97656;95367.1;;;;
2020/11/28 04:15:33;;;;;;;17.75;9.2;;;;;;;-0.27;73.97656;95367.1;;;;
2020/11/28 04:16:33;;;;;;;17.75;9.2;;;;;;;-0.27;73.97656;95367.1;;;;
2020/11/28 04:17:33;;;;;;;17.75;9.2;;;;;;;-0.27;73.97656;95367.1;;;;
2020/11/28 04:18:34;;;;;;;15.7;9.5;;;;;;;-0.27;73.87109;95370.65;;;;
2020/11/28 04:19:34;;;;;;;15.7;9.5;;;;;;;-0.27;73.87109;95370.65;;;;
2020/11/28 04:20:35;;;;;;;15.7;9.5;;;;;;;-0.27;73.87109;95370.65;;;;
2020/11/28 04:21:35;;;;;;;15.7;9.5;;;;;;;-0.27;73.87109;95370.65;;;;
2020/11/28 04:22:36;;;;;;;15.7;9.5;;;;;;;-0.27;73.87109;95370.65;;;;
2020/11/28 04:23:36;;;;;;;15.7;9.5;;;;;;;-0.27;73.87109;95370.65;;;;
2020/11/28 04:24:37;;;;;;;15.7;9.5;;;;;;;-0.27;73.87109;95370.65;;;;
2020/11/28 04:25:37;;;;;;;15.7;9.5;;;;;;;-0.27;73.87109;95370.65;;;;
2020/11/28 04:26:38;;;;;;;15.7;9.5;;;;;;;-0.27;73.87109;95370.65;;;;
2020/11/28 04:27:38;;;;;;;15.7;9.5;;;;;;;-0.27;73.87109;95370.65;;;;
2020/11/28 04:28:39;;;;;;;13.8;8.349998;;;;;;;-0.25;73.88574;95373.03;;;;
2020/11/28 04:29:39;;;;;;;13.8;8.349998;;;;;;;-0.25;73.88574;95373.03;;;;
2020/11/28 04:30:40;;;;;;;13.8;8.349998;;;;;;;-0.25;73.88574;95373.03;;;;
2020/11/28 04:31:40;;;;;;;13.8;8.349998;;;;;;;-0.25;73.88574;95373.03;;;;
2020/11/28 04:32:41;;;;;;;13.8;8.349998;;;;;;;-0.25;73.88574;95373.03;;;;
2020/11/28 04:33:43;;;;;;;13.8;8.349998;;;;;;;-0.25;73.88574;95373.03;;;;
2020/11/28 04:34:44;;;;;;;13.8;8.349998;;;;;;;-0.25;73.88574;95373.03;;;;
2020/11/28 04:35:44;;;;;;;13.8;8.349998;;;;;;;-0.25;73.88574;95373.03;;;;
2020/11/28 04:36:45;;;;;;;13.8;8.349998;;;;;;;-0.25;73.88574;95373.03;;;;
2020/11/28 04:37:45;;;;;;;13.8;8.349998;;;;;;;-0.25;73.88574;95373.03;;;;
2020/11/28 04:38:46;;;;;;;13.8;8.349998;;;;;;;-0.25;73.88574;95373.03;;;;
2020/11/28 04:39:46;;;;;;;14.65;8.799999;;;;;;;-0.23;73.84961;95367.91;;;;
2020/11/28 04:40:47;;;;;;;14.65;8.799999;;;;;;;-0.23;73.84961;95367.91;;;;
2020/11/28 04:41:47;;;;;;;14.65;8.799999;;;;;;;-0.23;73.84961;95367.91;;;;
2020/11/28 04:42:49;;;;;;;14.65;8.799999;;;;;;;-0.23;73.84961;95367.91;;;;
2020/11/28 04:43:51;;;;;;;14.65;8.799999;;;;;;;-0.23;73.84961;95367.91;;;;
2020/11/28 04:44:52;;;;;;;14.65;8.799999;;;;;;;-0.23;73.84961;95367.91;;;;
2020/11/28 04:45:52;;;;;;;14.65;8.799999;;;;;;;-0.23;73.84961;95367.91;;;;
2020/11/28 04:46:53;;;;;;;14.65;8.799999;;;;;;;-0.23;73.84961;95367.91;;;;
2020/11/28 04:47:53;;;;;;;14.65;8.799999;;;;;;;-0.23;73.84961;95367.91;;;;
2020/11/28 04:48:54;;;;;;;14.65;8.799999;;;;;;;-0.23;73.84961;95367.91;;;;
2020/11/28 04:49:55;;;;;;;16.15;9.500002;;;;;;;-0.18;73.95996;95363.01;;;;
2020/11/28 04:50:55;;;;;;;16.15;9.500002;;;;;;;-0.18;73.95996;95363.01;;;;
2020/11/28 04:51:57;;;;;;;16.15;9.500002;;;;;;;-0.18;73.95996;95363.01;;;;
2020/11/28 04:53:00;;;;;;;16.15;9.500002;;;;;;;-0.18;73.95996;95363.01;;;;
2020/11/28 04:54:03;;;;;;;16.15;9.500002;;;;;;;-0.18;73.95996;95363.01;;;;
2020/11/28 04:55:05;;;;;;;16.15;9.500002;;;;;;;-0.18;73.95996;95363.01;;;;
2020/11/28 04:56:06;;;;;;;16.15;9.500002;;;;;;;-0.18;73.95996;95363.01;;;;
2020/11/28 04:57:07;;;;;;;16.15;9.500002;;;;;;;-0.18;73.95996;95363.01;;;;
2020/11/28 04:58:10;;;;;;;16.15;9.500002;;;;;;;-0.18;73.95996;95363.01;;;;
2020/11/28 04:59:11;;;;;;;16.15;9.500002;;;;;;;-0.18;73.95996;95363.01;;;;
2020/11/28 05:00:11;;;;;;;16.15;9.500002;;;;;;;-0.18;73.95996;95363.01;;;;
2020/11/28 05:01:13;;;;;;;18.25;11.1;;;;;;;-0.14;74.00977;95360.75;;;;
2020/11/28 05:02:14;;;;;;;18.25;11.1;;;;;;;-0.14;74.00977;95360.75;;;;
2020/11/28 05:03:15;;;;;;;18.25;11.1;;;;;;;-0.14;74.00977;95360.75;;;;
2020/11/28 05:04:15;;;;;;;18.25;11.1;;;;;;;-0.14;74.00977;95360.75;;;;
2020/11/28 05:05:18;;;;;;;18.25;11.1;;;;;;;-0.14;74.00977;95360.75;;;;
2020/11/28 05:06:21;;;;;;;18.25;11.1;;;;;;;-0.14;74.00977;95360.75;;;;
2020/11/28 05:07:26;;;;;;;18.25;11.1;;;;;;;-0.14;74.00977;95360.75;;;;
2020/11/28 05:08:26;;;;;;;18.25;11.1;;;;;;;-0.14;74.00977;95360.75;;;;
2020/11/28 05:09:26;;;;;;;18.25;11.1;;;;;;;-0.14;74.00977;95360.75;;;;
2020/11/28 05:10:27;;;;;;;18.25;11.1;;;;;;;-0.14;74.00977;95360.75;;;;
2020/11/28 05:11:27;;;;;;;19.95;10.8;;;;;;;-0.04;74.25781;95372.44;;;;
2020/11/28 05:12:28;;;;;;;19.95;10.8;;;;;;;-0.04;74.25781;95372.44;;;;
2020/11/28 05:13:29;;;;;;;19.95;10.8;;;;;;;-0.04;74.25781;95372.44;;;;
2020/11/28 05:14:30;;;;;;;19.95;10.8;;;;;;;-0.04;74.25781;95372.44;;;;
2020/11/28 05:15:30;;;;;;;19.95;10.8;;;;;;;-0.04;74.25781;95372.44;;;;
2020/11/28 05:16:30;;;;;;;19.95;10.8;;;;;;;-0.04;74.25781;95372.44;;;;
2020/11/28 05:17:31;;;;;;;19.95;10.8;;;;;;;-0.04;74.25781;95372.44;;;;
2020/11/28 05:18:33;;;;;;;19.95;10.8;;;;;;;-0.04;74.25781;95372.44;;;;
2020/11/28 05:19:34;;;;;;;19.95;10.8;;;;;;;-0.04;74.25781;95372.44;;;;
2020/11/28 05:20:34;;;;;;;19.95;10.8;;;;;;;-0.04;74.25781;95372.44;;;;
2020/11/28 05:21:35;;;;;;;19.95;10.8;;;;;;;-0.04;74.25781;95372.44;;;;
2020/11/28 05:22:38;;;;;;;17.95;10.95;;;;;;;0.04;74.33398;95368.42;;;;
2020/11/28 05:23:39;;;;;;;17.95;10.95;;;;;;;0.04;74.33398;95368.42;;;;
2020/11/28 05:24:41;;;;;;;17.95;10.95;;;;;;;0.04;74.33398;95368.42;;;;
2020/11/28 05:25:42;;;;;;;17.95;10.95;;;;;;;0.04;74.33398;95368.42;;;;
2020/11/28 05:26:46;;;;;;;17.95;10.95;;;;;;;0.04;74.33398;95368.42;;;;
2020/11/28 05:27:46;;;;;;;17.95;10.95;;;;;;;0.04;74.33398;95368.42;;;;
2020/11/28 05:28:49;;;;;;;17.95;10.95;;;;;;;0.04;74.33398;95368.42;;;;
2020/11/28 05:29:50;;;;;;;17.95;10.95;;;;;;;0.04;74.33398;95368.42;;;;
2020/11/28 05:30:50;;;;;;;17.95;10.95;;;;;;;0.04;74.33398;95368.42;;;;
2020/11/28 05:31:51;;;;;;;17.95;10.95;;;;;;;0.04;74.33398;95368.42;;;;
2020/11/28 05:32:55;;;;;;;20.25;11.35;;;;;;;0.1;74.40625;95369.58;;;;
2020/11/28 05:33:56;;;;;;;20.25;11.35;;;;;;;0.1;74.40625;95369.58;;;;
2020/11/28 05:34:56;;;;;;;20.25;11.35;;;;;;;0.1;74.40625;95369.58;;;;
2020/11/28 05:35:57;;;;;;;20.25;11.35;;;;;;;0.1;74.40625;95369.58;;;;
2020/11/28 05:36:57;;;;;;;20.25;11.35;;;;;;;0.1;74.40625;95369.58;;;;
2020/11/28 05:37:58;;;;;;;20.25;11.35;;;;;;;0.1;74.40625;95369.58;;;;
2020/11/28 05:39:03;;;;;;;20.25;11.35;;;;;;;0.1;74.40625;95369.58;;;;
2020/11/28 05:40:04;;;;;;;20.25;11.35;;;;;;;0.1;74.40625;95369.58;;;;